createdAt,value
2019-06-26T00:00:10.328Z,6.09
2019-06-26T00:02:38.614Z,6.03
2019-06-26T00:05:08.100Z,6.00
2019-06-26T00:07:36.878Z,5.98
2019-06-26T00:10:06.773Z,5.94
2019-06-26T00:12:35.478Z,5.92
2019-06-26T00:15:07.647Z,5.91
2019-06-26T00:17:36.460Z,5.90
2019-06-26T00:20:06.136Z,5.88
2019-06-26T00:22:34.823Z,5.92
2019-06-26T00:25:04.601Z,5.95
2019-06-26T00:27:33.527Z,5.98
2019-06-26T00:30:02.723Z,6.01
2019-06-26T00:32:31.509Z,6.04
2019-06-26T00:35:00.292Z,6.06
2019-06-26T00:37:28.994Z,6.11
2019-06-26T00:39:57.766Z,6.16
2019-06-26T00:42:26.563Z,6.18
2019-06-26T00:44:55.337Z,6.22
2019-06-26T00:47:24.625Z,6.27
2019-06-26T00:49:53.422Z,6.32
2019-06-26T00:52:22.252Z,6.32
2019-06-26T00:54:51.117Z,6.33
2019-06-26T00:57:19.879Z,6.33
2019-06-26T00:59:48.684Z,6.31
2019-06-26T01:02:17.457Z,6.29
2019-06-26T01:04:50.560Z,6.28
2019-06-26T01:07:19.334Z,6.31
2019-06-26T01:09:48.114Z,6.31
2019-06-26T01:12:16.910Z,6.33
2019-06-26T01:14:45.757Z,6.31
2019-06-26T01:17:14.482Z,6.25
2019-06-26T01:19:43.357Z,6.17
2019-06-26T01:22:12.251Z,6.08
2019-06-26T01:24:41.040Z,6.06
2019-06-26T01:27:10.220Z,6.06
2019-06-26T01:29:39.017Z,6.07
2019-06-26T01:32:07.809Z,6.12
2019-06-26T01:34:36.625Z,6.13
2019-06-26T01:37:05.265Z,6.16
2019-06-26T01:39:33.959Z,6.20
2019-06-26T01:42:02.737Z,6.28
2019-06-26T01:44:31.529Z,6.32
2019-06-26T01:47:00.422Z,6.37
2019-06-26T01:49:30.324Z,6.43
2019-06-26T01:51:59.131Z,6.48
2019-06-26T01:54:28.620Z,6.50
2019-06-26T01:56:57.412Z,6.51
2019-06-26T01:59:26.200Z,6.59
2019-06-26T02:01:55.009Z,6.69
2019-06-26T02:04:23.767Z,6.80
2019-06-26T02:06:52.565Z,6.88
2019-06-26T02:09:21.338Z,6.92
2019-06-26T02:11:50.125Z,6.90
2019-06-26T02:14:30.580Z,6.98
2019-06-26T02:16:49.348Z,7.11
2019-06-26T02:19:19.661Z,7.24
2019-06-26T02:21:48.347Z,7.35
2019-06-26T02:24:17.138Z,7.53
2019-06-26T02:26:45.918Z,7.67
2019-06-26T02:29:14.802Z,7.74
2019-06-26T02:31:43.513Z,7.74
2019-06-26T02:34:12.281Z,7.76
2019-06-26T02:36:41.078Z,7.72
2019-06-26T02:39:10.162Z,7.67
2019-06-26T02:41:38.959Z,7.67
2019-06-26T02:44:07.744Z,7.63
2019-06-26T02:46:36.526Z,7.61
2019-06-26T02:49:05.301Z,7.69
2019-06-26T02:51:34.273Z,7.75
2019-06-26T02:54:02.978Z,7.82
2019-06-26T02:56:31.760Z,7.85
2019-06-26T02:59:00.569Z,7.88
2019-06-26T03:01:29.616Z,7.94
2019-06-26T03:03:58.322Z,7.99
2019-06-26T03:06:27.218Z,8.07
2019-06-26T03:08:55.994Z,8.17
2019-06-26T03:11:24.787Z,8.30
2019-06-26T03:13:53.581Z,8.44
2019-06-26T03:16:22.350Z,8.56
2019-06-26T03:18:51.039Z,8.78
2019-06-26T03:21:19.835Z,8.93
2019-06-26T03:23:48.569Z,9.13
2019-06-26T03:26:17.293Z,9.50
2019-06-26T03:28:46.083Z,9.93
2019-06-26T03:31:14.880Z,10.59
2019-06-26T03:33:43.670Z,11.80
2019-06-26T03:36:12.446Z,12.29
2019-06-26T03:38:41.638Z,12.87
2019-06-26T03:41:10.332Z,13.22
2019-06-26T03:43:39.124Z,13.90
2019-06-26T03:46:07.952Z,14.72
2019-06-26T03:48:36.787Z,15.20
2019-06-26T03:51:05.978Z,15.78
2019-06-26T03:53:34.728Z,16.46
2019-06-26T03:56:03.466Z,16.66
2019-06-26T03:58:34.461Z,17.08
2019-06-26T04:01:05.431Z,17.25
2019-06-26T04:03:36.251Z,17.35
2019-06-26T04:06:06.241Z,17.55
2019-06-26T04:08:35.615Z,17.82
2019-06-26T04:11:04.560Z,18.09
2019-06-26T04:13:33.680Z,18.10
2019-06-26T04:16:04.104Z,18.14
2019-06-26T04:18:33.781Z,18.45
2019-06-26T04:21:05.078Z,18.75
2019-06-26T04:23:34.657Z,18.57
2019-06-26T04:26:05.224Z,19.17
2019-06-26T04:28:34.798Z,19.59
2019-06-26T04:31:06.789Z,19.45
2019-06-26T04:33:36.255Z,19.45
2019-06-26T04:36:07.144Z,19.79
2019-06-26T04:38:36.218Z,20.38
2019-06-26T04:41:07.416Z,20.80
2019-06-26T04:43:36.963Z,21.13
2019-06-26T04:46:07.454Z,21.23
2019-06-26T04:48:36.902Z,21.76
2019-06-26T04:51:07.807Z,21.56
2019-06-26T04:53:37.508Z,21.73
2019-06-26T04:56:09.665Z,22.43
2019-06-26T04:58:39.276Z,22.13
2019-06-26T05:01:09.813Z,22.44
2019-06-26T05:03:40.452Z,22.48
2019-06-26T05:06:13.422Z,22.35
2019-06-26T05:08:43.917Z,22.97
2019-06-26T05:11:14.700Z,22.50
2019-06-26T05:13:43.863Z,22.91
2019-06-26T05:16:20.023Z,22.88
2019-06-26T05:18:48.363Z,22.40
2019-06-26T05:21:17.627Z,22.99
2019-06-26T05:23:48.622Z,23.48
2019-06-26T05:26:18.089Z,23.14
2019-06-26T05:28:49.403Z,23.19
2019-06-26T05:31:18.543Z,23.49
2019-06-26T05:33:49.012Z,23.04
2019-06-26T05:36:17.905Z,22.90
2019-06-26T05:38:54.747Z,22.81
2019-06-26T05:41:27.434Z,23.17
2019-06-26T05:43:58.693Z,23.49
2019-06-26T05:46:31.519Z,23.28
2019-06-26T05:49:09.166Z,22.92
2019-06-26T05:51:38.187Z,23.05
2019-06-26T05:54:09.298Z,23.34
2019-06-26T05:56:38.094Z,23.09
2019-06-26T05:59:07.294Z,21.84
2019-06-26T06:01:36.068Z,22.12
2019-06-26T06:04:04.843Z,21.33
2019-06-26T06:06:41.852Z,20.73
2019-06-26T06:09:05.700Z,20.03
2019-06-26T06:11:34.490Z,19.86
2019-06-26T06:14:03.532Z,19.99
2019-06-26T06:16:46.344Z,19.58
2019-06-26T06:19:03.611Z,19.01
2019-06-26T06:21:32.225Z,19.06
2019-06-26T06:24:02.108Z,18.95
2019-06-26T06:26:30.880Z,18.62
2019-06-26T06:28:59.676Z,18.39
2019-06-26T06:31:28.361Z,18.26
2019-06-26T06:33:57.257Z,18.65
2019-06-26T06:36:25.924Z,18.91
2019-06-26T06:38:54.721Z,18.96
2019-06-26T06:41:23.530Z,19.44
2019-06-26T06:43:52.704Z,19.58
2019-06-26T06:46:23.286Z,19.90
2019-06-26T06:48:54.331Z,20.41
2019-06-26T06:51:23.152Z,21.19
2019-06-26T06:53:51.936Z,21.42
2019-06-26T06:56:20.609Z,22.00
2019-06-26T06:58:49.410Z,22.46
2019-06-26T07:01:18.203Z,23.30
2019-06-26T07:03:46.988Z,23.50
2019-06-26T07:06:15.945Z,23.54
2019-06-26T07:08:44.770Z,23.86
2019-06-26T07:11:13.558Z,23.85
2019-06-26T07:13:42.230Z,24.30
2019-06-26T07:16:11.019Z,23.81
2019-06-26T07:18:39.909Z,24.13
2019-06-26T07:21:08.695Z,24.49
2019-06-26T07:23:37.507Z,24.90
2019-06-26T07:26:06.131Z,25.01
2019-06-26T07:28:36.395Z,25.14
2019-06-26T07:31:06.657Z,25.34
2019-06-26T07:33:35.394Z,25.17
2019-06-26T07:36:04.180Z,25.87
2019-06-26T07:38:34.097Z,25.36
2019-06-26T07:41:02.904Z,25.51
2019-06-26T07:43:31.881Z,25.72
2019-06-26T07:46:00.539Z,26.11
2019-06-26T07:48:29.543Z,26.04
2019-06-26T07:50:58.235Z,26.35
2019-06-26T07:53:27.337Z,26.85
2019-06-26T07:55:56.140Z,26.81
2019-06-26T07:58:24.902Z,25.40
2019-06-26T08:00:53.612Z,23.10
2019-06-26T08:03:22.370Z,23.12
2019-06-26T08:05:51.058Z,21.73
2019-06-26T08:08:20.352Z,22.35
2019-06-26T08:10:49.044Z,22.08
2019-06-26T08:13:17.722Z,21.20
2019-06-26T08:15:46.506Z,21.67
2019-06-26T08:18:15.503Z,23.18
2019-06-26T08:20:55.433Z,23.95
2019-06-26T08:23:17.167Z,25.57
2019-06-26T08:25:45.829Z,25.56
2019-06-26T08:28:14.536Z,25.10
2019-06-26T08:30:43.894Z,24.71
2019-06-26T08:33:12.726Z,23.86
2019-06-26T08:35:41.399Z,23.93
2019-06-26T08:38:15.146Z,22.86
2019-06-26T08:40:40.710Z,21.97
2019-06-26T08:43:09.411Z,22.04
2019-06-26T08:45:38.754Z,23.21
2019-06-26T08:48:22.758Z,23.19
2019-06-26T08:50:38.445Z,24.55
2019-06-26T08:53:07.105Z,24.79
2019-06-26T08:55:36.913Z,25.37
2019-06-26T08:58:06.307Z,26.03
2019-06-26T09:00:35.139Z,26.01
2019-06-26T09:03:03.859Z,24.48
2019-06-26T09:05:46.904Z,22.91
2019-06-26T09:08:03.078Z,23.78
2019-06-26T09:10:32.089Z,24.91
2019-06-26T09:13:00.884Z,24.82
2019-06-26T09:15:30.392Z,24.90
2019-06-26T09:17:59.180Z,25.15
2019-06-26T09:20:34.434Z,24.28
2019-06-26T09:23:05.164Z,24.62
2019-06-26T09:25:33.928Z,24.28
2019-06-26T09:28:02.846Z,25.68
2019-06-26T09:30:34.487Z,24.65
2019-06-26T09:33:06.449Z,24.52
2019-06-26T09:35:35.969Z,25.39
2019-06-26T09:38:05.448Z,25.70
2019-06-26T09:40:34.229Z,23.92
2019-06-26T09:43:03.012Z,22.73
2019-06-26T09:45:31.706Z,22.22
2019-06-26T09:48:03.753Z,23.49
2019-06-26T09:50:32.550Z,23.80
2019-06-26T09:53:05.523Z,24.81
2019-06-26T09:55:34.742Z,23.84
2019-06-26T09:58:03.524Z,24.95
2019-06-26T10:00:33.413Z,24.57
2019-06-26T10:03:03.576Z,24.65
2019-06-26T10:05:32.326Z,23.93
2019-06-26T10:08:02.894Z,24.24
2019-06-26T10:10:33.360Z,24.24
2019-06-26T10:13:02.160Z,24.39
2019-06-26T10:15:31.294Z,23.48
2019-06-26T10:18:00.055Z,24.13
2019-06-26T10:20:29.302Z,24.82
2019-06-26T10:23:00.803Z,24.66
2019-06-26T10:25:29.931Z,23.14
2019-06-26T10:28:00.582Z,24.12
2019-06-26T10:30:33.277Z,24.78
2019-06-26T10:33:02.316Z,24.54
2019-06-26T10:35:31.185Z,24.35
2019-06-26T10:38:00.237Z,23.88
2019-06-26T10:40:29.331Z,22.58
2019-06-26T10:42:58.157Z,22.95
2019-06-26T10:45:29.307Z,23.20
2019-06-26T10:47:59.952Z,24.07
2019-06-26T10:50:30.847Z,23.96
2019-06-26T10:52:59.777Z,24.31
2019-06-26T10:55:30.631Z,24.47
2019-06-26T10:57:59.854Z,23.88
2019-06-26T11:00:29.698Z,24.27
2019-06-26T11:03:02.080Z,24.85
2019-06-26T11:05:32.737Z,24.19
2019-06-26T11:08:03.997Z,24.36
2019-06-26T11:10:33.052Z,23.61
2019-06-26T11:13:02.311Z,22.14
2019-06-26T11:15:33.451Z,21.42
2019-06-26T11:18:02.269Z,22.15
2019-06-26T11:20:31.748Z,22.10
2019-06-26T11:23:03.258Z,21.55
2019-06-26T11:25:32.107Z,21.03
2019-06-26T11:28:02.942Z,20.72
2019-06-26T11:30:31.950Z,21.22
2019-06-26T11:33:03.127Z,21.34
2019-06-26T11:35:32.191Z,20.97
2019-06-26T11:38:04.778Z,20.64
2019-06-26T11:40:34.003Z,21.24
2019-06-26T11:43:04.631Z,22.08
2019-06-26T11:45:33.755Z,22.49
2019-06-26T11:48:04.852Z,22.69
2019-06-26T11:50:34.411Z,21.72
2019-06-26T11:53:05.569Z,22.05
2019-06-26T11:55:34.526Z,22.74
2019-06-26T11:58:03.312Z,22.97
2019-06-26T12:00:32.099Z,23.25
2019-06-26T12:03:00.904Z,22.85
2019-06-26T12:05:29.689Z,22.93
2019-06-26T12:08:01.124Z,22.72
2019-06-26T12:10:31.805Z,22.79
2019-06-26T12:13:04.052Z,23.48
2019-06-26T12:15:33.038Z,23.36
2019-06-26T12:18:04.284Z,23.36
2019-06-26T12:20:35.160Z,23.77
2019-06-26T12:23:04.792Z,23.31
2019-06-26T12:25:35.672Z,23.41
2019-06-26T12:28:05.110Z,23.76
2019-06-26T12:30:36.697Z,23.76
2019-06-26T12:33:07.703Z,23.52
2019-06-26T12:35:36.523Z,23.69
2019-06-26T12:38:05.302Z,23.13
2019-06-26T12:40:34.087Z,22.69
2019-06-26T12:43:02.840Z,22.18
2019-06-26T12:45:33.442Z,22.41
2019-06-26T12:48:02.292Z,22.67
2019-06-26T12:50:35.978Z,23.10
2019-06-26T12:53:01.916Z,22.08
2019-06-26T12:55:32.977Z,22.52
2019-06-26T12:58:12.601Z,22.39
2019-06-26T13:00:31.990Z,22.41
2019-06-26T13:03:01.267Z,22.36
2019-06-26T13:05:30.039Z,22.23
2019-06-26T13:07:58.820Z,21.82
2019-06-26T13:10:27.888Z,21.50
2019-06-26T13:12:56.613Z,21.42
2019-06-26T13:15:32.439Z,20.91
2019-06-26T13:18:11.352Z,20.56
2019-06-26T13:20:52.369Z,20.45
2019-06-26T13:23:10.381Z,20.36
2019-06-26T13:25:39.175Z,20.47
2019-06-26T13:28:07.971Z,20.56
2019-06-26T13:30:41.165Z,20.51
2019-06-26T13:33:09.830Z,20.35
2019-06-26T13:35:38.751Z,20.23
2019-06-26T13:38:07.413Z,20.30
2019-06-26T13:40:36.045Z,20.01
2019-06-26T13:43:04.685Z,19.84
2019-06-26T13:45:33.456Z,19.41
2019-06-26T13:48:02.124Z,19.26
2019-06-26T13:50:30.934Z,19.38
2019-06-26T13:52:59.759Z,19.09
2019-06-26T13:55:28.606Z,19.03
2019-06-26T13:57:57.394Z,19.57
2019-06-26T14:00:35.056Z,20.26
2019-06-26T14:03:04.311Z,20.71
2019-06-26T14:05:33.236Z,21.09
2019-06-26T14:08:02.062Z,21.37
2019-06-26T14:10:30.983Z,21.60
2019-06-26T14:13:01.613Z,21.44
2019-06-26T14:15:32.235Z,21.60
2019-06-26T14:18:02.730Z,21.82
2019-06-26T14:20:31.872Z,22.13
2019-06-26T14:23:02.408Z,22.34
2019-06-26T14:25:31.634Z,21.84
2019-06-26T14:28:02.549Z,22.16
2019-06-26T14:30:33.385Z,21.74
2019-06-26T14:33:02.268Z,21.74
2019-06-26T14:35:31.936Z,21.42
2019-06-26T14:38:01.363Z,21.79
2019-06-26T14:40:30.211Z,21.45
2019-06-26T14:42:58.892Z,21.40
2019-06-26T14:45:29.757Z,21.00
2019-06-26T14:47:58.875Z,20.39
2019-06-26T14:50:31.249Z,20.29
2019-06-26T14:53:00.483Z,20.29
2019-06-26T14:55:37.594Z,20.38
2019-06-26T14:58:06.545Z,20.38
2019-06-26T15:00:37.299Z,20.57
2019-06-26T15:03:06.317Z,20.24
2019-06-26T15:05:35.441Z,20.37
2019-06-26T15:08:09.144Z,20.56
2019-06-26T15:10:39.363Z,20.55
2019-06-26T15:13:08.880Z,20.45
2019-06-26T15:15:37.715Z,20.67
2019-06-26T15:18:06.742Z,19.78
2019-06-26T15:20:35.683Z,19.84
2019-06-26T15:23:04.946Z,19.19
2019-06-26T15:25:34.318Z,18.88
2019-06-26T15:28:09.421Z,18.87
2019-06-26T15:30:38.097Z,18.86
2019-06-26T15:33:07.435Z,18.67
2019-06-26T15:35:38.311Z,18.68
2019-06-26T15:38:08.580Z,18.79
2019-06-26T15:40:37.419Z,19.11
2019-06-26T15:43:06.341Z,19.36
2019-06-26T15:45:35.267Z,19.38
2019-06-26T15:48:04.999Z,19.59
2019-06-26T15:50:37.681Z,19.90
2019-06-26T15:53:06.702Z,19.83
2019-06-26T15:55:35.602Z,20.02
2019-06-26T15:58:04.723Z,19.51
2019-06-26T16:00:34.816Z,19.51
2019-06-26T16:03:06.453Z,19.53
2019-06-26T16:05:38.797Z,19.75
2019-06-26T16:08:11.331Z,19.76
2019-06-26T16:10:40.508Z,19.61
2019-06-26T16:13:12.715Z,20.03
2019-06-26T16:15:42.319Z,20.04
2019-06-26T16:18:25.285Z,19.88
2019-06-26T16:20:57.612Z,19.77
2019-06-26T16:23:26.808Z,19.29
2019-06-26T16:25:55.789Z,18.92
2019-06-26T16:28:24.748Z,18.67
2019-06-26T16:30:58.451Z,18.47
2019-06-26T16:33:27.542Z,18.16
2019-06-26T16:36:01.088Z,18.25
2019-06-26T16:38:33.571Z,18.20
2019-06-26T16:41:05.389Z,18.14
2019-06-26T16:43:34.390Z,18.11
2019-06-26T16:46:06.234Z,18.03
2019-06-26T16:48:37.388Z,18.04
2019-06-26T16:51:08.388Z,18.19
2019-06-26T16:53:37.534Z,18.31
2019-06-26T16:56:07.498Z,18.31
2019-06-26T16:58:38.546Z,18.44
2019-06-26T17:01:11.528Z,18.44
2019-06-26T17:03:41.165Z,18.44
2019-06-26T17:06:13.667Z,18.38
2019-06-26T17:08:42.643Z,18.44
2019-06-26T17:11:13.389Z,18.58
2019-06-26T17:13:42.777Z,18.65
2019-06-26T17:16:17.026Z,18.69
2019-06-26T17:18:46.062Z,18.77
2019-06-26T17:21:14.827Z,18.89
2019-06-26T17:23:43.781Z,18.92
2019-06-26T17:26:12.516Z,18.83
2019-06-26T17:28:44.081Z,18.84
2019-06-26T17:31:16.224Z,18.81
2019-06-26T17:33:45.544Z,18.72
2019-06-26T17:36:14.431Z,18.50
2019-06-26T17:38:43.750Z,18.50
2019-06-26T17:41:12.719Z,18.41
2019-06-26T17:43:42.015Z,18.32
2019-06-26T17:46:10.863Z,18.18
2019-06-26T17:48:39.512Z,18.18
2019-06-26T17:51:08.546Z,18.20
2019-06-26T17:53:37.328Z,18.12
2019-06-26T17:56:07.661Z,18.12
2019-06-26T17:58:36.435Z,18.14
2019-06-26T18:01:05.613Z,18.14
2019-06-26T18:03:38.330Z,18.21
2019-06-26T18:06:07.217Z,18.02
2019-06-26T18:08:35.978Z,18.07
2019-06-26T18:11:04.790Z,18.00
2019-06-26T18:13:34.126Z,18.02
2019-06-26T18:16:03.097Z,17.95
2019-06-26T18:18:36.106Z,17.87
2019-06-26T18:21:04.862Z,17.87
2019-06-26T18:23:38.365Z,17.76
2019-06-26T18:26:12.958Z,17.66
2019-06-26T18:28:36.514Z,17.47
2019-06-26T18:31:07.420Z,17.47
2019-06-26T18:33:36.270Z,17.41
2019-06-26T18:36:05.135Z,17.22
2019-06-26T18:38:34.191Z,17.04
2019-06-26T18:41:04.584Z,16.97
2019-06-26T18:43:33.456Z,16.87
2019-06-26T18:46:02.655Z,16.72
2019-06-26T18:48:33.642Z,16.73
2019-06-26T18:51:05.853Z,16.68
2019-06-26T18:53:53.175Z,16.61
2019-06-26T18:56:14.270Z,16.36
2019-06-26T18:58:46.221Z,16.20
2019-06-26T19:01:17.112Z,16.08
2019-06-26T19:03:46.218Z,15.93
2019-06-26T19:06:15.056Z,15.82
2019-06-26T19:08:44.422Z,15.73
2019-06-26T19:11:13.286Z,15.65
2019-06-26T19:13:43.695Z,15.48
2019-06-26T19:16:12.654Z,15.42
2019-06-26T19:18:41.600Z,15.29
2019-06-26T19:21:10.318Z,15.24
2019-06-26T19:23:39.222Z,15.14
2019-06-26T19:26:10.233Z,15.03
2019-06-26T19:28:39.555Z,14.93
2019-06-26T19:31:10.387Z,14.92
2019-06-26T19:33:39.295Z,14.84
2019-06-26T19:36:10.296Z,14.74
2019-06-26T19:38:40.784Z,14.73
2019-06-26T19:41:09.563Z,14.73
2019-06-26T19:43:43.275Z,14.67
2019-06-26T19:46:12.251Z,14.63
2019-06-26T19:48:42.797Z,14.55
2019-06-26T19:51:11.711Z,14.47
2019-06-26T19:53:42.523Z,14.36
2019-06-26T19:56:11.470Z,14.26
2019-06-26T19:58:43.009Z,14.23
2019-06-26T20:01:11.934Z,14.14
2019-06-26T20:03:40.923Z,14.05
2019-06-26T20:06:09.680Z,13.94
2019-06-26T20:08:51.872Z,13.96
2019-06-26T20:11:08.984Z,13.91
2019-06-26T20:13:37.763Z,13.88
2019-06-26T20:16:06.556Z,13.88
2019-06-26T20:18:35.335Z,13.92
2019-06-26T20:21:04.148Z,13.94
2019-06-26T20:23:32.921Z,13.99
2019-06-26T20:26:01.798Z,13.99
2019-06-26T20:28:30.584Z,13.97
2019-06-26T20:30:59.392Z,13.94
2019-06-26T20:33:28.172Z,13.87
2019-06-26T20:35:57.046Z,13.90
2019-06-26T20:38:25.838Z,13.88
2019-06-26T20:40:54.625Z,13.83
2019-06-26T20:43:23.410Z,13.82
2019-06-26T20:45:52.187Z,13.73
2019-06-26T20:48:21.178Z,13.57
2019-06-26T20:50:50.279Z,13.55
2019-06-26T20:53:19.367Z,13.52
2019-06-26T20:55:48.156Z,13.48
2019-06-26T20:58:16.943Z,13.48
2019-06-26T21:00:45.736Z,13.43
2019-06-26T21:03:14.532Z,13.46
2019-06-26T21:05:43.243Z,13.40
2019-06-26T21:08:12.041Z,13.36
2019-06-26T21:10:40.771Z,13.36
2019-06-26T21:13:09.572Z,13.35
2019-06-26T21:15:38.455Z,13.36
2019-06-26T21:18:07.060Z,13.38
2019-06-26T21:20:35.820Z,13.38
2019-06-26T21:23:17.527Z,13.39
2019-06-26T21:25:35.056Z,13.39
2019-06-26T21:28:03.823Z,13.45
2019-06-26T21:30:32.599Z,13.45
2019-06-26T21:33:01.389Z,13.37
2019-06-26T21:35:30.264Z,13.37
2019-06-26T21:37:59.170Z,13.42
2019-06-26T21:40:27.951Z,13.40
2019-06-26T21:42:58.604Z,13.40
2019-06-26T21:45:30.813Z,13.34
2019-06-26T21:48:01.936Z,13.29
2019-06-26T21:50:31.025Z,13.30
2019-06-26T21:53:00.172Z,13.28
2019-06-26T21:55:34.713Z,13.26
2019-06-26T21:58:04.968Z,13.26
2019-06-26T22:00:36.813Z,13.24
2019-06-26T22:03:06.105Z,13.24
2019-06-26T22:05:38.229Z,13.28
2019-06-26T22:08:07.604Z,13.28
2019-06-26T22:10:38.517Z,13.24
2019-06-26T22:13:07.511Z,13.23
2019-06-26T22:15:37.948Z,13.23
2019-06-26T22:18:07.063Z,13.21
2019-06-26T22:20:37.642Z,13.22
2019-06-26T22:23:09.588Z,13.21
2019-06-26T22:25:50.324Z,13.18
2019-06-26T22:28:13.288Z,13.17
2019-06-26T22:30:42.352Z,13.16
2019-06-26T22:33:13.384Z,13.16
2019-06-26T22:35:43.200Z,13.15
2019-06-26T22:38:13.571Z,13.14
2019-06-26T22:40:43.709Z,13.11
2019-06-26T22:43:14.529Z,13.13
2019-06-26T22:45:45.233Z,13.14
2019-06-26T22:48:17.051Z,13.16
2019-06-26T22:50:47.504Z,13.16
2019-06-26T22:53:16.428Z,13.16
2019-06-26T22:55:45.461Z,13.13
2019-06-26T22:58:16.585Z,13.16
2019-06-26T23:00:47.820Z,13.13
2019-06-26T23:03:18.480Z,13.15
2019-06-26T23:05:47.526Z,13.16
2019-06-26T23:08:16.551Z,13.13
2019-06-26T23:10:45.816Z,13.14
2019-06-26T23:13:19.859Z,13.15
2019-06-26T23:15:50.561Z,13.12
2019-06-26T23:18:19.546Z,13.13
2019-06-26T23:20:50.695Z,13.12
2019-06-26T23:23:19.951Z,13.12
2019-06-26T23:25:54.481Z,13.15
2019-06-26T23:28:23.384Z,13.14
2019-06-26T23:30:54.175Z,13.12
2019-06-26T23:33:23.234Z,13.13
2019-06-26T23:35:54.101Z,13.10
2019-06-26T23:38:23.216Z,13.02
2019-06-26T23:40:54.155Z,13.02
2019-06-26T23:43:23.263Z,12.96
2019-06-26T23:45:54.258Z,13.00
2019-06-26T23:48:26.562Z,13.00
2019-06-26T23:50:56.447Z,12.99
2019-06-26T23:53:25.310Z,12.98
2019-06-26T23:55:55.869Z,13.00
2019-06-26T23:58:24.798Z,12.99
